Station Historical Data
Daily Summary for May 15, 2017 Units:  Both    English   Metric
« Previous Day
Next Day »
Daily Weekly Monthly Yearly Custom
  High: Low: Average:
Temperature: 62.3 °F /  16.8 °C 42.9 °F /  6.1 °C 52.5 °F /  11.4 °C
Dew Point: 47.8 °F /  8.8 °C 38.1 °F /  3.4 °C 42.1 °F /  5.6 °C
Humidity: 83% 51% 69%
Wind Speed: 17.0mph /  27.4km/h - 4.5mph /  7.2km/h
Wind Gust: 23.0mph /  37km/h - -
Wind- - West
Pressure: 30.04 in /  1017.2 hPa 29.90 in /  1012.4 hPa -
Precipitation: 0.00 in /  0 mm    
Historical Graphs
 
 
Tabular Data for May 15, 2017
Time Temperature Dew Point Pressure Wind Wind Speed Wind Gust Humidity Rainfall Rate (Hourly)
00:04 49.9 °F /  9.9 °C 42.3 °F /  5.7 °C 29.90in /  1012.4hPa WNW 1.0mph /  1.6km/h 7.0mph /  11.3km/h 75% 0.00in /  0mm
00:09 49.9 °F /  9.9 °C 42.3 °F /  5.7 °C 29.90in /  1012.4hPa WNW 3.0mph /  4.8km/h 7.0mph /  11.3km/h 75% 0.00in /  0mm
00:14 49.9 °F /  9.9 °C 42.3 °F /  5.7 °C 29.90in /  1012.4hPa WNW 2.0mph /  3.2km/h 6.0mph /  9.7km/h 75% 0.00in /  0mm
00:19 49.9 °F /  9.9 °C 41.9 °F /  5.5 °C 29.90in /  1012.4hPa NW 3.0mph /  4.8km/h 6.0mph /  9.7km/h 74% 0.00in /  0mm
00:24 49.9 °F /  9.9 °C 41.9 °F /  5.5 °C 29.90in /  1012.4hPa NW 3.0mph /  4.8km/h 6.0mph /  9.7km/h 74% 0.00in /  0mm
00:29 49.9 °F /  9.9 °C 41.9 °F /  5.5 °C 29.90in /  1012.4hPa NW 2.0mph /  3.2km/h 6.0mph /  9.7km/h 74% 0.00in /  0mm
00:34 49.9 °F /  9.9 °C 41.9 °F /  5.5 °C 29.90in /  1012.4hPa NW 1.0mph /  1.6km/h 5.0mph /  8km/h 74% 0.00in /  0mm
00:39 49.9 °F /  9.9 °C 41.9 °F /  5.5 °C 29.90in /  1012.4hPa NW 1.0mph /  1.6km/h 6.0mph /  9.7km/h 74% 0.00in /  0mm
00:44 50.0 °F /  10 °C 42.0 °F /  5.6 °C 29.90in /  1012.4hPa WNW 3.0mph /  4.8km/h 6.0mph /  9.7km/h 74% 0.00in /  0mm
00:49 50.1 °F /  10.1 °C 41.8 °F /  5.4 °C 29.90in /  1012.4hPa NW 3.0mph /  4.8km/h 5.0mph /  8km/h 73% 0.00in /  0mm
00:54 50.2 °F /  10.1 °C 41.9 °F /  5.5 °C 29.90in /  1012.4hPa NW 2.0mph /  3.2km/h 7.0mph /  11.3km/h 73% 0.00in /  0mm
00:59 50.2 °F /  10.1 °C 41.5 °F /  5.3 °C 29.90in /  1012.4hPa NNW 3.0mph /  4.8km/h 8.0mph /  12.9km/h 72% 0.00in /  0mm
01:04 50.2 °F /  10.1 °C 41.5 °F /  5.3 °C 29.90in /  1012.4hPa NW 2.0mph /  3.2km/h 5.0mph /  8km/h 72% 0.00in /  0mm
01:09 50.2 °F /  10.1 °C 41.5 °F /  5.3 °C 29.90in /  1012.4hPa NW 2.0mph /  3.2km/h 6.0mph /  9.7km/h 72% 0.00in /  0mm
01:14 50.3 °F /  10.2 °C 41.6 °F /  5.3 °C 29.90in /  1012.4hPa WNW 3.0mph /  4.8km/h 6.0mph /  9.7km/h 72% 0.00in /  0mm
01:19 50.3 °F /  10.2 °C 41.6 °F /  5.3 °C 29.90in /  1012.4hPa WNW 3.0mph /  4.8km/h 7.0mph /  11.3km/h 72% 0.00in /  0mm
01:24 50.3 °F /  10.2 °C 41.6 °F /  5.3 °C 29.90in /  1012.4hPa NW 3.0mph /  4.8km/h 8.0mph /  12.9km/h 72% 0.00in /  0mm
01:29 50.1 °F /  10.1 °C 41.4 °F /  5.2 °C 29.90in /  1012.4hPa West 2.0mph /  3.2km/h 8.0mph /  12.9km/h 72% 0.00in /  0mm
01:34 50.1 °F /  10.1 °C 41.8 °F /  5.4 °C 29.90in /  1012.4hPa WNW 4.0mph /  6.4km/h 8.0mph /  12.9km/h 73% 0.00in /  0mm
01:39 49.9 °F /  9.9 °C 41.6 °F /  5.3 °C 29.90in /  1012.4hPa WNW 4.0mph /  6.4km/h 8.0mph /  12.9km/h 73% 0.00in /  0mm
01:44 49.7 °F /  9.8 °C 41.4 °F /  5.2 °C 29.90in /  1012.4hPa WNW 3.0mph /  4.8km/h 6.0mph /  9.7km/h 73% 0.00in /  0mm
01:49 49.6 °F /  9.8 °C 41.7 °F /  5.4 °C 29.90in /  1012.4hPa WNW 2.0mph /  3.2km/h 5.0mph /  8km/h 74% 0.00in /  0mm
01:54 49.3 °F /  9.6 °C 41.4 °F /  5.2 °C 29.90in /  1012.4hPa WNW 2.0mph /  3.2km/h 6.0mph /  9.7km/h 74% 0.00in /  0mm
01:59 49.0 °F /  9.4 °C 41.4 °F /  5.2 °C 29.90in /  1012.4hPa West 4.0mph /  6.4km/h 6.0mph /  9.7km/h 75% 0.00in /  0mm
02:04 48.7 °F /  9.3 °C 41.1 °F /  5.1 °C 29.90in /  1012.4hPa West 3.0mph /  4.8km/h 6.0mph /  9.7km/h 75% 0.00in /  0mm
02:09 48.3 °F /  9.1 °C 41.1 °F /  5.1 °C 29.90in /  1012.4hPa West 3.0mph /  4.8km/h 5.0mph /  8km/h 76% 0.00in /  0mm
02:14 48.0 °F /  8.9 °C 41.1 °F /  5.1 °C 29.91in /  1012.8hPa West 3.0mph /  4.8km/h 5.0mph /  8km/h 77% 0.00in /  0mm
02:19 47.7 °F /  8.7 °C 40.8 °F /  4.9 °C 29.91in /  1012.8hPa West 3.0mph /  4.8km/h 7.0mph /  11.3km/h 77% 0.00in /  0mm
02:24 47.4 °F /  8.6 °C 40.6 °F /  4.8 °C 29.91in /  1012.8hPa WNW 5.0mph /  8km/h 6.0mph /  9.7km/h 77% 0.00in /  0mm
02:29 47.2 °F /  8.4 °C 40.4 °F /  4.7 °C 29.91in /  1012.8hPa West 2.0mph /  3.2km/h 5.0mph /  8km/h 77% 0.00in /  0mm
02:34 47.0 °F /  8.3 °C 40.5 °F /  4.7 °C 29.91in /  1012.8hPa West 3.0mph /  4.8km/h 7.0mph /  11.3km/h 78% 0.00in /  0mm
02:39 46.9 °F /  8.3 °C 40.4 °F /  4.7 °C 29.91in /  1012.8hPa West 3.0mph /  4.8km/h 7.0mph /  11.3km/h 78% 0.00in /  0mm
02:44 46.7 °F /  8.2 °C 40.2 °F /  4.6 °C 29.91in /  1012.8hPa West 4.0mph /  6.4km/h 7.0mph /  11.3km/h 78% 0.00in /  0mm
02:49 46.6 °F /  8.1 °C 40.4 °F /  4.7 °C 29.91in /  1012.8hPa WNW 3.0mph /  4.8km/h 8.0mph /  12.9km/h 79% 0.00in /  0mm
02:54 46.5 °F /  8.1 °C 40.3 °F /  4.6 °C 29.91in /  1012.8hPa WNW 3.0mph /  4.8km/h 5.0mph /  8km/h 79% 0.00in /  0mm
02:59 46.3 °F /  7.9 °C 40.1 °F /  4.5 °C 29.91in /  1012.8hPa West 2.0mph /  3.2km/h 6.0mph /  9.7km/h 79% 0.00in /  0mm
03:04 46.1 °F /  7.8 °C 39.9 °F /  4.4 °C 29.91in /  1012.8hPa West 3.0mph /  4.8km/h 6.0mph /  9.7km/h 79% 0.00in /  0mm
03:09 46.0 °F /  7.8 °C 39.9 °F /  4.4 °C 29.91in /  1012.8hPa WNW 3.0mph /  4.8km/h 6.0mph /  9.7km/h 79% 0.00in /  0mm
03:14 45.9 °F /  7.7 °C 39.8 °F /  4.3 °C 29.92in /  1013.1hPa WNW 3.0mph /  4.8km/h 5.0mph /  8km/h 79% 0.00in /  0mm
03:19 45.7 °F /  7.6 °C 39.6 °F /  4.2 °C 29.92in /  1013.1hPa West 2.0mph /  3.2km/h 6.0mph /  9.7km/h 79% 0.00in /  0mm
03:24 45.5 °F /  7.5 °C 39.4 °F /  4.1 °C 29.92in /  1013.1hPa West 3.0mph /  4.8km/h 4.0mph /  6.4km/h 79% 0.00in /  0mm
03:29 45.4 °F /  7.4 °C 39.6 °F /  4.2 °C 29.92in /  1013.1hPa West 4.0mph /  6.4km/h 5.0mph /  8km/h 80% 0.00in /  0mm
03:34 45.4 °F /  7.4 °C 39.6 °F /  4.2 °C 29.92in /  1013.1hPa West 2.0mph /  3.2km/h 5.0mph /  8km/h 80% 0.00in /  0mm
03:39 45.2 °F /  7.3 °C 39.4 °F /  4.1 °C 29.92in /  1013.1hPa West 2.0mph /  3.2km/h 5.0mph /  8km/h 80% 0.00in /  0mm
03:44 45.1 °F /  7.3 °C 39.3 °F /  4.1 °C 29.92in /  1013.1hPa West 2.0mph /  3.2km/h 4.0mph /  6.4km/h 80% 0.00in /  0mm
03:49 44.9 °F /  7.2 °C 39.1 °F /  3.9 °C 29.92in /  1013.1hPa West 2.0mph /  3.2km/h 4.0mph /  6.4km/h 80% 0.00in /  0mm
03:54 44.9 °F /  7.2 °C 39.4 °F /  4.1 °C 29.92in /  1013.1hPa WNW 3.0mph /  4.8km/h 5.0mph /  8km/h 81% 0.00in /  0mm
03:59 44.8 °F /  7.1 °C 39.0 °F /  3.9 °C 29.92in /  1013.1hPa West 2.0mph /  3.2km/h 5.0mph /  8km/h 80% 0.00in /  0mm
04:04 44.7 °F /  7.1 °C 38.9 °F /  3.8 °C 29.92in /  1013.1hPa West 1.0mph /  1.6km/h 3.0mph /  4.8km/h 80% 0.00in /  0mm
04:09 44.6 °F /  7 °C 38.8 °F /  3.8 °C 29.92in /  1013.1hPa West 2.0mph /  3.2km/h 3.0mph /  4.8km/h 80% 0.00in /  0mm
04:14 44.4 °F /  6.9 °C 38.9 °F /  3.8 °C 29.92in /  1013.1hPa West 1.0mph /  1.6km/h 4.0mph /  6.4km/h 81% 0.00in /  0mm
04:19 44.4 °F /  6.9 °C 38.9 °F /  3.8 °C 29.92in /  1013.1hPa West 1.0mph /  1.6km/h 4.0mph /  6.4km/h 81% 0.00in /  0mm
04:24 44.4 °F /  6.9 °C 38.9 °F /  3.8 °C 29.92in /  1013.1hPa West 2.0mph /  3.2km/h 5.0mph /  8km/h 81% 0.00in /  0mm
04:29 44.4 °F /  6.9 °C 38.9 °F /  3.8 °C 29.92in /  1013.1hPa West 2.0mph /  3.2km/h 5.0mph /  8km/h 81% 0.00in /  0mm
04:34 44.3 °F /  6.8 °C 38.8 °F /  3.8 °C 29.92in /  1013.1hPa West 2.0mph /  3.2km/h 5.0mph /  8km/h 81% 0.00in /  0mm
04:39 44.5 °F /  6.9 °C 39.0 °F /  3.9 °C 29.92in /  1013.1hPa West 2.0mph /  3.2km/h 5.0mph /  8km/h 81% 0.00in /  0mm
04:44 44.5 °F /  6.9 °C 39.0 °F /  3.9 °C 29.92in /  1013.1hPa West 2.0mph /  3.2km/h 7.0mph /  11.3km/h 81% 0.00in /  0mm
04:49 44.3 °F /  6.8 °C 38.8 °F /  3.8 °C 29.92in /  1013.1hPa West 2.0mph /  3.2km/h 7.0mph /  11.3km/h 81% 0.00in /  0mm
04:54 44.2 °F /  6.8 °C 38.7 °F /  3.7 °C 29.92in /  1013.1hPa WNW 2.0mph /  3.2km/h 6.0mph /  9.7km/h 81% 0.00in /  0mm
04:59 44.0 °F /  6.7 °C 38.5 °F /  3.6 °C 29.93in /  1013.4hPa WNW 2.0mph /  3.2km/h 6.0mph /  9.7km/h 81% 0.00in /  0mm
05:04 43.8 °F /  6.6 °C 38.3 °F /  3.5 °C 29.93in /  1013.4hPa WNW 2.0mph /  3.2km/h 5.0mph /  8km/h 81% 0.00in /  0mm
05:09 43.5 °F /  6.4 °C 38.4 °F /  3.6 °C 29.93in /  1013.4hPa WNW 2.0mph /  3.2km/h 4.0mph /  6.4km/h 82% 0.00in /  0mm
05:14 43.4 °F /  6.3 °C 38.3 °F /  3.5 °C 29.93in /  1013.4hPa WNW 4.0mph /  6.4km/h 4.0mph /  6.4km/h 82% 0.00in /  0mm
05:19 43.4 °F /  6.3 °C 38.3 °F /  3.5 °C 29.93in /  1013.4hPa West 3.0mph /  4.8km/h 5.0mph /  8km/h 82% 0.00in /  0mm
05:24 43.3 °F /  6.3 °C 38.2 °F /  3.4 °C 29.93in /  1013.4hPa WNW 2.0mph /  3.2km/h 4.0mph /  6.4km/h 82% 0.00in /  0mm
05:29 43.2 °F /  6.2 °C 38.4 °F /  3.6 °C 29.94in /  1013.8hPa West 2.0mph /  3.2km/h 5.0mph /  8km/h 83% 0.00in /  0mm
05:34 43.1 °F /  6.2 °C 38.3 °F /  3.5 °C 29.94in /  1013.8hPa West 2.0mph /  3.2km/h 5.0mph /  8km/h 83% 0.00in /  0mm
05:39 43.0 °F /  6.1 °C 38.2 °F /  3.4 °C 29.94in /  1013.8hPa WNW 3.0mph /  4.8km/h 4.0mph /  6.4km/h 83% 0.00in /  0mm
05:44 42.9 °F /  6.1 °C 38.1 °F /  3.4 °C 29.94in /  1013.8hPa West 3.0mph /  4.8km/h 5.0mph /  8km/h 83% 0.00in /  0mm
05:49 42.9 °F /  6.1 °C 38.1 °F /  3.4 °C 29.94in /  1013.8hPa West 3.0mph /  4.8km/h 5.0mph /  8km/h 83% 0.00in /  0mm
05:54 42.9 °F /  6.1 °C 38.1 °F /  3.4 °C 29.94in /  1013.8hPa WNW 3.0mph /  4.8km/h 4.0mph /  6.4km/h 83% 0.00in /  0mm
05:59 42.9 °F /  6.1 °C 38.1 °F /  3.4 °C 29.94in /  1013.8hPa WNW 2.0mph /  3.2km/h 4.0mph /  6.4km/h 83% 0.00in /  0mm
06:04 42.9 °F /  6.1 °C 38.1 °F /  3.4 °C 29.95in /  1014.1hPa West 2.0mph /  3.2km/h 5.0mph /  8km/h 83% 0.00in /  0mm
06:09 42.9 °F /  6.1 °C 38.1 °F /  3.4 °C 29.95in /  1014.1hPa West 2.0mph /  3.2km/h 5.0mph /  8km/h 83% 0.00in /  0mm
06:14 42.9 °F /  6.1 °C 38.1 °F /  3.4 °C 29.95in /  1014.1hPa West 1.0mph /  1.6km/h 4.0mph /  6.4km/h 83% 0.00in /  0mm
06:19 43.0 °F /  6.1 °C 38.2 °F /  3.4 °C 29.95in /  1014.1hPa West 2.0mph /  3.2km/h 5.0mph /  8km/h 83% 0.00in /  0mm
06:24 43.3 °F /  6.3 °C 38.5 °F /  3.6 °C 29.95in /  1014.1hPa West 2.0mph /  3.2km/h 4.0mph /  6.4km/h 83% 0.00in /  0mm
06:29 43.6 °F /  6.4 °C 38.5 °F /  3.6 °C 29.95in /  1014.1hPa West 1.0mph /  1.6km/h 4.0mph /  6.4km/h 82% 0.00in /  0mm
06:34 43.7 °F /  6.5 °C 38.6 °F /  3.7 °C 29.96in /  1014.4hPa Calm     82% 0.00in /  0mm
06:39 44.1 °F /  6.7 °C 39.0 °F /  3.9 °C 29.96in /  1014.4hPa WSW 2.0mph /  3.2km/h 3.0mph /  4.8km/h 82% 0.00in /  0mm
06:44 44.3 °F /  6.8 °C 38.8 °F /  3.8 °C 29.96in /  1014.4hPa WNW 2.0mph /  3.2km/h 5.0mph /  8km/h 81% 0.00in /  0mm
06:49 44.6 °F /  7 °C 39.1 °F /  3.9 °C 29.97in /  1014.8hPa Calm   3.0mph /  4.8km/h 81% 0.00in /  0mm
06:54 44.9 °F /  7.2 °C 39.4 °F /  4.1 °C 29.96in /  1014.4hPa West 1.0mph /  1.6km/h 4.0mph /  6.4km/h 81% 0.00in /  0mm
06:59 45.3 °F /  7.4 °C 39.5 °F /  4.2 °C 29.96in /  1014.4hPa WNW 2.0mph /  3.2km/h 7.0mph /  11.3km/h 80% 0.00in /  0mm
07:04 45.6 °F /  7.6 °C 39.5 °F /  4.2 °C 29.97in /  1014.8hPa WNW 3.0mph /  4.8km/h 7.0mph /  11.3km/h 79% 0.00in /  0mm
07:09 45.9 °F /  7.7 °C 39.8 °F /  4.3 °C 29.97in /  1014.8hPa WNW 2.0mph /  3.2km/h 6.0mph /  9.7km/h 79% 0.00in /  0mm
07:14 46.2 °F /  7.9 °C 39.7 °F /  4.3 °C 29.97in /  1014.8hPa NW 3.0mph /  4.8km/h 7.0mph /  11.3km/h 78% 0.00in /  0mm
07:19 46.7 °F /  8.2 °C 39.9 °F /  4.4 °C 29.97in /  1014.8hPa NW 2.0mph /  3.2km/h 7.0mph /  11.3km/h 77% 0.00in /  0mm
07:24 47.1 °F /  8.4 °C 39.9 °F /  4.4 °C 29.97in /  1014.8hPa WNW 1.0mph /  1.6km/h 7.0mph /  11.3km/h 76% 0.00in /  0mm
07:29 47.4 °F /  8.6 °C 39.9 °F /  4.4 °C 29.97in /  1014.8hPa NW 3.0mph /  4.8km/h 7.0mph /  11.3km/h 75% 0.00in /  0mm
07:34 47.7 °F /  8.7 °C 40.2 °F /  4.6 °C 29.97in /  1014.8hPa West 2.0mph /  3.2km/h 7.0mph /  11.3km/h 75% 0.00in /  0mm
07:39 48.1 °F /  8.9 °C 40.2 °F /  4.6 °C 29.97in /  1014.8hPa NW 4.0mph /  6.4km/h 6.0mph /  9.7km/h 74% 0.00in /  0mm
07:44 48.6 °F /  9.2 °C 40.0 °F /  4.4 °C 29.97in /  1014.8hPa NNW 3.0mph /  4.8km/h 9.0mph /  14.5km/h 72% 0.00in /  0mm
07:49 49.1 °F /  9.5 °C 40.1 °F /  4.5 °C 29.97in /  1014.8hPa North 2.0mph /  3.2km/h 9.0mph /  14.5km/h 71% 0.00in /  0mm
07:54 49.5 °F /  9.7 °C 40.5 °F /  4.7 °C 29.98in /  1015.1hPa WNW 2.0mph /  3.2km/h 11.0mph /  17.7km/h 71% 0.00in /  0mm
07:59 50.0 °F /  10 °C 41.0 °F /  5 °C 29.98in /  1015.1hPa NW 4.0mph /  6.4km/h 11.0mph /  17.7km/h 71% 0.00in /  0mm
08:04 50.3 °F /  10.2 °C 40.5 °F /  4.7 °C 29.98in /  1015.1hPa WNW 3.0mph /  4.8km/h 10.0mph /  16.1km/h 69% 0.00in /  0mm
08:09 50.6 °F /  10.3 °C 40.8 °F /  4.9 °C 29.98in /  1015.1hPa NNW 5.0mph /  8km/h 11.0mph /  17.7km/h 69% 0.00in /  0mm
08:14 50.8 °F /  10.4 °C 41.4 °F /  5.2 °C 29.98in /  1015.1hPa NNW 4.0mph /  6.4km/h 11.0mph /  17.7km/h 70% 0.00in /  0mm
08:19 51.5 °F /  10.8 °C 41.3 °F /  5.2 °C 29.99in /  1015.5hPa NNW 3.0mph /  4.8km/h 11.0mph /  17.7km/h 68% 0.00in /  0mm
08:24 51.5 °F /  10.8 °C 40.9 °F /  4.9 °C 29.99in /  1015.5hPa WNW 4.0mph /  6.4km/h 13.0mph /  20.9km/h 67% 0.00in /  0mm
08:29 51.5 °F /  10.8 °C 40.9 °F /  4.9 °C 29.99in /  1015.5hPa NW 5.0mph /  8km/h 13.0mph /  20.9km/h 67% 0.00in /  0mm
08:34 51.8 °F /  11 °C 41.2 °F /  5.1 °C 29.99in /  1015.5hPa NW 5.0mph /  8km/h 11.0mph /  17.7km/h 67% 0.00in /  0mm
08:39 51.8 °F /  11 °C 40.8 °F /  4.9 °C 29.98in /  1015.1hPa NNW 4.0mph /  6.4km/h 9.0mph /  14.5km/h 66% 0.00in /  0mm
08:44 52.3 °F /  11.3 °C 41.3 °F /  5.2 °C 29.98in /  1015.1hPa NW 9.0mph /  14.5km/h 11.0mph /  17.7km/h 66% 0.00in /  0mm
08:49 52.3 °F /  11.3 °C 41.3 °F /  5.2 °C 29.98in /  1015.1hPa WNW 2.0mph /  3.2km/h 10.0mph /  16.1km/h 66% 0.00in /  0mm
08:54 52.9 °F /  11.6 °C 41.4 °F /  5.2 °C 29.99in /  1015.5hPa NW 5.0mph /  8km/h 10.0mph /  16.1km/h 65% 0.00in /  0mm
08:59 53.2 °F /  11.8 °C 42.1 °F /  5.6 °C 29.98in /  1015.1hPa NNW 10.0mph /  16.1km/h 10.0mph /  16.1km/h 66% 0.00in /  0mm
09:04 53.3 °F /  11.8 °C 41.8 °F /  5.4 °C 29.99in /  1015.5hPa WNW 4.0mph /  6.4km/h 11.0mph /  17.7km/h 65% 0.00in /  0mm
09:09 53.5 °F /  11.9 °C 42.0 °F /  5.6 °C 29.98in /  1015.1hPa NW 4.0mph /  6.4km/h 12.0mph /  19.3km/h 65% 0.00in /  0mm
09:14 53.5 °F /  11.9 °C 42.0 °F /  5.6 °C 29.98in /  1015.1hPa WNW 3.0mph /  4.8km/h 10.0mph /  16.1km/h 65% 0.00in /  0mm
09:19 54.1 °F /  12.3 °C 43.4 °F /  6.3 °C 29.99in /  1015.5hPa WNW 2.0mph /  3.2km/h 8.0mph /  12.9km/h 67% 0.00in /  0mm
09:24 54.7 °F /  12.6 °C 42.3 °F /  5.7 °C 29.98in /  1015.1hPa NW 3.0mph /  4.8km/h 8.0mph /  12.9km/h 63% 0.00in /  0mm
09:29 54.6 °F /  12.6 °C 42.7 °F /  5.9 °C 29.98in /  1015.1hPa WNW 4.0mph /  6.4km/h 9.0mph /  14.5km/h 64% 0.00in /  0mm
09:34 54.5 °F /  12.5 °C 41.7 °F /  5.4 °C 29.98in /  1015.1hPa West 6.0mph /  9.7km/h 11.0mph /  17.7km/h 62% 0.00in /  0mm
09:39 54.5 °F /  12.5 °C 42.2 °F /  5.7 °C 29.98in /  1015.1hPa WNW 5.0mph /  8km/h 11.0mph /  17.7km/h 63% 0.00in /  0mm
09:44 54.8 °F /  12.7 °C 42.9 °F /  6.1 °C 29.98in /  1015.1hPa WNW 5.0mph /  8km/h 9.0mph /  14.5km/h 64% 0.00in /  0mm
09:49 54.8 °F /  12.7 °C 42.0 °F /  5.6 °C 29.98in /  1015.1hPa NNW 4.0mph /  6.4km/h 12.0mph /  19.3km/h 62% 0.00in /  0mm
09:54 54.7 °F /  12.6 °C 42.3 °F /  5.7 °C 29.98in /  1015.1hPa NW 5.0mph /  8km/h 12.0mph /  19.3km/h 63% 0.00in /  0mm
09:59 55.1 °F /  12.8 °C 42.3 °F /  5.7 °C 29.98in /  1015.1hPa WNW 5.0mph /  8km/h 10.0mph /  16.1km/h 62% 0.00in /  0mm
10:04 55.8 °F /  13.2 °C 43.8 °F /  6.6 °C 29.99in /  1015.5hPa WNW 6.0mph /  9.7km/h 7.0mph /  11.3km/h 64% 0.00in /  0mm
10:09 55.4 °F /  13 °C 42.2 °F /  5.7 °C 29.99in /  1015.5hPa WNW 4.0mph /  6.4km/h 9.0mph /  14.5km/h 61% 0.00in /  0mm
10:14 55.6 °F /  13.1 °C 42.4 °F /  5.8 °C 29.99in /  1015.5hPa NW 6.0mph /  9.7km/h 10.0mph /  16.1km/h 61% 0.00in /  0mm
10:19 55.5 °F /  13.1 °C 42.7 °F /  5.9 °C 29.99in /  1015.5hPa NW 11.0mph /  17.7km/h 11.0mph /  17.7km/h 62% 0.00in /  0mm
10:24 56.4 °F /  13.6 °C 43.5 °F /  6.4 °C 29.99in /  1015.5hPa NW 5.0mph /  8km/h 11.0mph /  17.7km/h 62% 0.00in /  0mm
10:29 56.7 °F /  13.7 °C 42.5 °F /  5.8 °C 30.00in /  1015.8hPa NW 5.0mph /  8km/h 13.0mph /  20.9km/h 59% 0.00in /  0mm
10:34 57.2 °F /  14 °C 43.9 °F /  6.6 °C 29.99in /  1015.5hPa West 8.0mph /  12.9km/h 8.0mph /  12.9km/h 61% 0.00in /  0mm
10:39 56.9 °F /  13.8 °C 43.2 °F /  6.2 °C 30.00in /  1015.8hPa WNW 7.0mph /  11.3km/h 11.0mph /  17.7km/h 60% 0.00in /  0mm
10:44 57.3 °F /  14.1 °C 44.0 °F /  6.7 °C 29.99in /  1015.5hPa North 6.0mph /  9.7km/h 11.0mph /  17.7km/h 61% 0.00in /  0mm
10:49 57.5 °F /  14.2 °C 43.3 °F /  6.3 °C 29.99in /  1015.5hPa NW 5.0mph /  8km/h 10.0mph /  16.1km/h 59% 0.00in /  0mm
10:54 57.9 °F /  14.4 °C 43.2 °F /  6.2 °C 29.99in /  1015.5hPa NW 5.0mph /  8km/h 10.0mph /  16.1km/h 58% 0.00in /  0mm
10:59 58.2 °F /  14.6 °C 43.5 °F /  6.4 °C 29.99in /  1015.5hPa NW 5.0mph /  8km/h 10.0mph /  16.1km/h 58% 0.00in /  0mm
11:04 58.6 °F /  14.8 °C 44.3 °F /  6.8 °C 30.00in /  1015.8hPa NW 5.0mph /  8km/h 13.0mph /  20.9km/h 59% 0.00in /  0mm
11:09 59.3 °F /  15.2 °C 44.5 °F /  6.9 °C 30.00in /  1015.8hPa WNW 5.0mph /  8km/h 13.0mph /  20.9km/h 58% 0.00in /  0mm
11:14 59.4 °F /  15.2 °C 43.7 °F /  6.5 °C 30.00in /  1015.8hPa WNW 5.0mph /  8km/h 10.0mph /  16.1km/h 56% 0.00in /  0mm
11:19 59.9 °F /  15.5 °C 44.2 °F /  6.8 °C 30.00in /  1015.8hPa WNW 3.0mph /  4.8km/h 10.0mph /  16.1km/h 56% 0.00in /  0mm
11:24 60.3 °F /  15.7 °C 44.5 °F /  6.9 °C 30.00in /  1015.8hPa WNW 7.0mph /  11.3km/h 13.0mph /  20.9km/h 56% 0.00in /  0mm
11:29 60.3 °F /  15.7 °C 44.5 °F /  6.9 °C 30.00in /  1015.8hPa SW 8.0mph /  12.9km/h 12.0mph /  19.3km/h 56% 0.00in /  0mm
11:34 60.3 °F /  15.7 °C 44.5 °F /  6.9 °C 30.00in /  1015.8hPa NW 6.0mph /  9.7km/h 13.0mph /  20.9km/h 56% 0.00in /  0mm
11:39 60.5 °F /  15.8 °C 44.2 °F /  6.8 °C 30.00in /  1015.8hPa NNW 6.0mph /  9.7km/h 13.0mph /  20.9km/h 55% 0.00in /  0mm
11:44 60.5 °F /  15.8 °C 44.2 °F /  6.8 °C 30.00in /  1015.8hPa WNW 7.0mph /  11.3km/h 13.0mph /  20.9km/h 55% 0.00in /  0mm
11:49 60.6 °F /  15.9 °C 44.3 °F /  6.8 °C 30.00in /  1015.8hPa West 6.0mph /  9.7km/h 14.0mph /  22.5km/h 55% 0.00in /  0mm
11:54 60.7 °F /  15.9 °C 44.9 °F /  7.2 °C 30.00in /  1015.8hPa WNW 7.0mph /  11.3km/h 14.0mph /  22.5km/h 56% 0.00in /  0mm
11:59 60.6 °F /  15.9 °C 43.9 °F /  6.6 °C 30.00in /  1015.8hPa WNW 7.0mph /  11.3km/h 13.0mph /  20.9km/h 54% 0.00in /  0mm
12:04 60.9 °F /  16.1 °C 44.1 °F /  6.7 °C 30.00in /  1015.8hPa NW 6.0mph /  9.7km/h 12.0mph /  19.3km/h 54% 0.00in /  0mm
12:09 60.9 °F /  16.1 °C 44.6 °F /  7 °C 29.99in /  1015.5hPa NW 5.0mph /  8km/h 12.0mph /  19.3km/h 55% 0.00in /  0mm
12:19 61.8 °F /  16.6 °C 45.9 °F /  7.7 °C 29.99in /  1015.5hPa NNW 3.0mph /  4.8km/h 11.0mph /  17.7km/h 56% 0.00in /  0mm
12:24 62.3 °F /  16.8 °C 45.4 °F /  7.4 °C 29.99in /  1015.5hPa WNW 6.0mph /  9.7km/h 8.0mph /  12.9km/h 54% 0.00in /  0mm
12:29 62.3 °F /  16.8 °C 45.9 °F /  7.7 °C 30.00in /  1015.8hPa WNW 5.0mph /  8km/h 10.0mph /  16.1km/h 55% 0.00in /  0mm
12:34 62.0 °F /  16.7 °C 44.7 °F /  7.1 °C 30.00in /  1015.8hPa WNW 8.0mph /  12.9km/h 13.0mph /  20.9km/h 53% 0.00in /  0mm
12:39 61.6 °F /  16.4 °C 45.3 °F /  7.4 °C 29.99in /  1015.5hPa North 4.0mph /  6.4km/h 14.0mph /  22.5km/h 55% 0.00in /  0mm
12:44 62.1 °F /  16.7 °C 46.2 °F /  7.9 °C 29.99in /  1015.5hPa West 5.0mph /  8km/h 11.0mph /  17.7km/h 56% 0.00in /  0mm
12:49 62.2 °F /  16.8 °C 44.3 °F /  6.8 °C 29.99in /  1015.5hPa WNW 6.0mph /  9.7km/h 13.0mph /  20.9km/h 52% 0.00in /  0mm
12:54 62.1 °F /  16.7 °C 43.7 °F /  6.5 °C 29.99in /  1015.5hPa WNW 6.0mph /  9.7km/h 13.0mph /  20.9km/h 51% 0.00in /  0mm
12:59 61.9 °F /  16.6 °C 45.5 °F /  7.5 °C 30.00in /  1015.8hPa WNW 6.0mph /  9.7km/h 15.0mph /  24.1km/h 55% 0.00in /  0mm
13:04 61.4 °F /  16.3 °C 47.8 °F /  8.8 °C 30.00in /  1015.8hPa West 4.0mph /  6.4km/h 9.0mph /  14.5km/h 61% 0.00in /  0mm
13:09 61.5 °F /  16.4 °C 46.6 °F /  8.1 °C 29.99in /  1015.5hPa WSW 6.0mph /  9.7km/h 12.0mph /  19.3km/h 58% 0.00in /  0mm
13:14 61.6 °F /  16.4 °C 47.6 °F /  8.7 °C 30.00in /  1015.8hPa WSW 7.0mph /  11.3km/h 10.0mph /  16.1km/h 60% 0.00in /  0mm
13:19 61.8 °F /  16.6 °C 46.4 °F /  8 °C 30.00in /  1015.8hPa WSW 6.0mph /  9.7km/h 12.0mph /  19.3km/h 57% 0.00in /  0mm
13:24 60.5 °F /  15.8 °C 46.1 °F /  7.8 °C 30.00in /  1015.8hPa WSW 6.0mph /  9.7km/h 15.0mph /  24.1km/h 59% 0.00in /  0mm
13:29 59.8 °F /  15.4 °C 46.7 °F /  8.2 °C 30.00in /  1015.8hPa SW 7.0mph /  11.3km/h 15.0mph /  24.1km/h 62% 0.00in /  0mm
13:34 59.4 °F /  15.2 °C 45.9 °F /  7.7 °C 30.00in /  1015.8hPa SW 7.0mph /  11.3km/h 15.0mph /  24.1km/h 61% 0.00in /  0mm
13:39 59.2 °F /  15.1 °C 47.0 °F /  8.3 °C 30.00in /  1015.8hPa WSW 8.0mph /  12.9km/h 14.0mph /  22.5km/h 64% 0.00in /  0mm
13:44 59.5 °F /  15.3 °C 46.5 °F /  8.1 °C 30.00in /  1015.8hPa WSW 10.0mph /  16.1km/h 14.0mph /  22.5km/h 62% 0.00in /  0mm
13:49 59.7 °F /  15.4 °C 46.7 °F /  8.2 °C 30.00in /  1015.8hPa SW 5.0mph /  8km/h 15.0mph /  24.1km/h 62% 0.00in /  0mm
13:54 59.9 °F /  15.5 °C 46.8 °F /  8.2 °C 30.00in /  1015.8hPa WSW 7.0mph /  11.3km/h 15.0mph /  24.1km/h 62% 0.00in /  0mm
13:59 59.9 °F /  15.5 °C 46.4 °F /  8 °C 30.00in /  1015.8hPa WSW 7.0mph /  11.3km/h 15.0mph /  24.1km/h 61% 0.00in /  0mm
14:04 59.6 °F /  15.3 °C 44.8 °F /  7.1 °C 30.00in /  1015.8hPa South 5.0mph /  8km/h 19.0mph /  30.6km/h 58% 0.00in /  0mm
14:09 59.2 °F /  15.1 °C 44.9 °F /  7.2 °C 30.00in /  1015.8hPa SSE 8.0mph /  12.9km/h 16.0mph /  25.7km/h 59% 0.00in /  0mm
14:14 58.9 °F /  14.9 °C 45.5 °F /  7.5 °C 30.00in /  1015.8hPa WSW 5.0mph /  8km/h 16.0mph /  25.7km/h 61% 0.00in /  0mm
14:19 59.1 °F /  15.1 °C 45.7 °F /  7.6 °C 30.00in /  1015.8hPa WSW 9.0mph /  14.5km/h 13.0mph /  20.9km/h 61% 0.00in /  0mm
14:24 59.4 °F /  15.2 °C 45.1 °F /  7.3 °C 30.00in /  1015.8hPa WSW 8.0mph /  12.9km/h 18.0mph /  29km/h 59% 0.00in /  0mm
14:29 59.3 °F /  15.2 °C 45.4 °F /  7.4 °C 30.00in /  1015.8hPa WSW 9.0mph /  14.5km/h 18.0mph /  29km/h 60% 0.00in /  0mm
14:34 59.6 °F /  15.3 °C 47.0 °F /  8.3 °C 30.00in /  1015.8hPa WSW 9.0mph /  14.5km/h 17.0mph /  27.4km/h 63% 0.00in /  0mm
14:39 60.0 °F /  15.6 °C 46.1 °F /  7.8 °C 30.00in /  1015.8hPa West 10.0mph /  16.1km/h 15.0mph /  24.1km/h 60% 0.00in /  0mm
14:44 60.1 °F /  15.6 °C 45.3 °F /  7.4 °C 30.00in /  1015.8hPa SW 8.0mph /  12.9km/h 16.0mph /  25.7km/h 58% 0.00in /  0mm
14:49 60.1 °F /  15.6 °C 44.3 °F /  6.8 °C 30.00in /  1015.8hPa West 6.0mph /  9.7km/h 20.0mph /  32.2km/h 56% 0.00in /  0mm
14:54 59.6 °F /  15.3 °C 43.9 °F /  6.6 °C 30.00in /  1015.8hPa WSW 9.0mph /  14.5km/h 20.0mph /  32.2km/h 56% 0.00in /  0mm
14:59 59.3 °F /  15.2 °C 44.1 °F /  6.7 °C 30.00in /  1015.8hPa SW 17.0mph /  27.4km/h 18.0mph /  29km/h 57% 0.00in /  0mm
15:04 59.2 °F /  15.1 °C 44.4 °F /  6.9 °C 30.00in /  1015.8hPa WSW 8.0mph /  12.9km/h 20.0mph /  32.2km/h 58% 0.00in /  0mm
15:09 59.2 °F /  15.1 °C 44.0 °F /  6.7 °C 30.01in /  1016.1hPa WSW 8.0mph /  12.9km/h 19.0mph /  30.6km/h 57% 0.00in /  0mm
15:14 59.1 °F /  15.1 °C 43.4 °F /  6.3 °C 30.00in /  1015.8hPa West 8.0mph /  12.9km/h 20.0mph /  32.2km/h 56% 0.00in /  0mm
15:19 58.9 °F /  14.9 °C 43.2 °F /  6.2 °C 30.00in /  1015.8hPa SSW 7.0mph /  11.3km/h 18.0mph /  29km/h 56% 0.00in /  0mm
15:24 59.0 °F /  15 °C 44.7 °F /  7.1 °C 30.00in /  1015.8hPa WSW 9.0mph /  14.5km/h 18.0mph /  29km/h 59% 0.00in /  0mm
15:29 59.4 °F /  15.2 °C 44.2 °F /  6.8 °C 30.00in /  1015.8hPa WSW 8.0mph /  12.9km/h 18.0mph /  29km/h 57% 0.00in /  0mm
15:34 59.3 °F /  15.2 °C 44.1 °F /  6.7 °C 30.00in /  1015.8hPa WSW 8.0mph /  12.9km/h 18.0mph /  29km/h 57% 0.00in /  0mm
15:39 59.1 °F /  15.1 °C 43.9 °F /  6.6 °C 30.00in /  1015.8hPa WSW 9.0mph /  14.5km/h 18.0mph /  29km/h 57% 0.00in /  0mm
15:44 59.0 °F /  15 °C 43.8 °F /  6.6 °C 30.00in /  1015.8hPa WSW 8.0mph /  12.9km/h 17.0mph /  27.4km/h 57% 0.00in /  0mm
15:49 58.8 °F /  14.9 °C 44.0 °F /  6.7 °C 30.00in /  1015.8hPa WSW 8.0mph /  12.9km/h 16.0mph /  25.7km/h 58% 0.00in /  0mm
15:54 59.0 °F /  15 °C 44.2 °F /  6.8 °C 30.00in /  1015.8hPa WNW 10.0mph /  16.1km/h 16.0mph /  25.7km/h 58% 0.00in /  0mm
15:59 58.7 °F /  14.8 °C 43.0 °F /  6.1 °C 30.00in /  1015.8hPa SW 7.0mph /  11.3km/h 23.0mph /  37km/h 56% 0.00in /  0mm
16:04 58.3 °F /  14.6 °C 43.6 °F /  6.4 °C 30.00in /  1015.8hPa West 5.0mph /  8km/h 16.0mph /  25.7km/h 58% 0.00in /  0mm
16:09 58.2 °F /  14.6 °C 44.4 °F /  6.9 °C 30.00in /  1015.8hPa SW 6.0mph /  9.7km/h 17.0mph /  27.4km/h 60% 0.00in /  0mm
16:14 58.3 °F /  14.6 °C 44.0 °F /  6.7 °C 30.00in /  1015.8hPa SW 11.0mph /  17.7km/h 18.0mph /  29km/h 59% 0.00in /  0mm
16:19 58.4 °F /  14.7 °C 44.1 °F /  6.7 °C 30.00in /  1015.8hPa WSW 8.0mph /  12.9km/h 18.0mph /  29km/h 59% 0.00in /  0mm
16:24 58.4 °F /  14.7 °C 44.6 °F /  7 °C 30.00in /  1015.8hPa WSW 8.0mph /  12.9km/h 18.0mph /  29km/h 60% 0.00in /  0mm
16:29 58.4 °F /  14.7 °C 44.1 °F /  6.7 °C 30.00in /  1015.8hPa WSW 8.0mph /  12.9km/h 15.0mph /  24.1km/h 59% 0.00in /  0mm
16:34 58.3 °F /  14.6 °C 44.5 °F /  6.9 °C 30.00in /  1015.8hPa WSW 8.0mph /  12.9km/h 21.0mph /  33.8km/h 60% 0.00in /  0mm
16:39 58.3 °F /  14.6 °C 44.0 °F /  6.7 °C 30.01in /  1016.1hPa WSW 8.0mph /  12.9km/h 21.0mph /  33.8km/h 59% 0.00in /  0mm
16:44 58.1 °F /  14.5 °C 44.3 °F /  6.8 °C 30.01in /  1016.1hPa West 5.0mph /  8km/h 18.0mph /  29km/h 60% 0.00in /  0mm
16:49 58.1 °F /  14.5 °C 43.8 °F /  6.6 °C 30.00in /  1015.8hPa SW 7.0mph /  11.3km/h 14.0mph /  22.5km/h 59% 0.00in /  0mm
16:54 58.2 °F /  14.6 °C 43.9 °F /  6.6 °C 30.00in /  1015.8hPa WSW 6.0mph /  9.7km/h 11.0mph /  17.7km/h 59% 0.00in /  0mm
16:59 58.5 °F /  14.7 °C 44.7 °F /  7.1 °C 30.01in /  1016.1hPa WNW 8.0mph /  12.9km/h 14.0mph /  22.5km/h 60% 0.00in /  0mm
17:04 58.3 °F /  14.6 °C 43.6 °F /  6.4 °C 30.00in /  1015.8hPa SSW 5.0mph /  8km/h 14.0mph /  22.5km/h 58% 0.00in /  0mm
17:09 58.3 °F /  14.6 °C 44.5 °F /  6.9 °C 30.00in /  1015.8hPa WSW 7.0mph /  11.3km/h 14.0mph /  22.5km/h 60% 0.00in /  0mm
17:14 58.0 °F /  14.4 °C 42.8 °F /  6 °C 30.00in /  1015.8hPa WSW 8.0mph /  12.9km/h 16.0mph /  25.7km/h 57% 0.00in /  0mm
17:19 57.8 °F /  14.3 °C 43.6 °F /  6.4 °C 30.00in /  1015.8hPa SW 8.0mph /  12.9km/h 17.0mph /  27.4km/h 59% 0.00in /  0mm
17:24 57.3 °F /  14.1 °C 43.5 °F /  6.4 °C 30.00in /  1015.8hPa WSW 8.0mph /  12.9km/h 17.0mph /  27.4km/h 60% 0.00in /  0mm
17:29 57.3 °F /  14.1 °C 43.5 °F /  6.4 °C 30.00in /  1015.8hPa WSW 7.0mph /  11.3km/h 17.0mph /  27.4km/h 60% 0.00in /  0mm
17:34 57.4 °F /  14.1 °C 43.6 °F /  6.4 °C 30.00in /  1015.8hPa SW 7.0mph /  11.3km/h 11.0mph /  17.7km/h 60% 0.00in /  0mm
17:39 57.3 °F /  14.1 °C 43.1 °F /  6.2 °C 30.00in /  1015.8hPa WSW 10.0mph /  16.1km/h 15.0mph /  24.1km/h 59% 0.00in /  0mm
17:44 57.0 °F /  13.9 °C 42.8 °F /  6 °C 30.00in /  1015.8hPa SW 8.0mph /  12.9km/h 17.0mph /  27.4km/h 59% 0.00in /  0mm
17:49 56.6 °F /  13.7 °C 42.4 °F /  5.8 °C 30.00in /  1015.8hPa WSW 8.0mph /  12.9km/h 17.0mph /  27.4km/h 59% 0.00in /  0mm
17:54 56.4 °F /  13.6 °C 42.7 °F /  5.9 °C 30.01in /  1016.1hPa WSW 9.0mph /  14.5km/h 16.0mph /  25.7km/h 60% 0.00in /  0mm
17:59 56.2 °F /  13.4 °C 42.5 °F /  5.8 °C 30.01in /  1016.1hPa WSW 4.0mph /  6.4km/h 14.0mph /  22.5km/h 60% 0.00in /  0mm
18:04 56.3 °F /  13.5 °C 43.0 °F /  6.1 °C 30.01in /  1016.1hPa West 7.0mph /  11.3km/h 14.0mph /  22.5km/h 61% 0.00in /  0mm
18:09 56.1 °F /  13.4 °C 42.8 °F /  6 °C 30.01in /  1016.1hPa WSW 7.0mph /  11.3km/h 14.0mph /  22.5km/h 61% 0.00in /  0mm
18:14 56.2 °F /  13.4 °C 42.5 °F /  5.8 °C 30.01in /  1016.1hPa WSW 7.0mph /  11.3km/h 17.0mph /  27.4km/h 60% 0.00in /  0mm
18:19 55.9 °F /  13.3 °C 42.2 °F /  5.7 °C 30.01in /  1016.1hPa West 6.0mph /  9.7km/h 14.0mph /  22.5km/h 60% 0.00in /  0mm
18:24 55.7 °F /  13.2 °C 42.0 °F /  5.6 °C 30.01in /  1016.1hPa SW 9.0mph /  14.5km/h 14.0mph /  22.5km/h 60% 0.00in /  0mm
18:29 55.7 °F /  13.2 °C 42.5 °F /  5.8 °C 30.01in /  1016.1hPa SW 8.0mph /  12.9km/h 13.0mph /  20.9km/h 61% 0.00in /  0mm
18:34 55.6 °F /  13.1 °C 42.4 °F /  5.8 °C 30.01in /  1016.1hPa WSW 10.0mph /  16.1km/h 10.0mph /  16.1km/h 61% 0.00in /  0mm
18:39 55.5 °F /  13.1 °C 42.3 °F /  5.7 °C 30.01in /  1016.1hPa WSW 6.0mph /  9.7km/h 13.0mph /  20.9km/h 61% 0.00in /  0mm
18:44 55.5 °F /  13.1 °C 42.3 °F /  5.7 °C 30.01in /  1016.1hPa WSW 6.0mph /  9.7km/h 13.0mph /  20.9km/h 61% 0.00in /  0mm
18:49 55.5 °F /  13.1 °C 42.7 °F /  5.9 °C 30.01in /  1016.1hPa WSW 6.0mph /  9.7km/h 13.0mph /  20.9km/h 62% 0.00in /  0mm
18:54 55.6 °F /  13.1 °C 42.8 °F /  6 °C 30.01in /  1016.1hPa WSW 5.0mph /  8km/h 12.0mph /  19.3km/h 62% 0.00in /  0mm
18:59 55.6 °F /  13.1 °C 42.8 °F /  6 °C 30.01in /  1016.1hPa WSW 4.0mph /  6.4km/h 11.0mph /  17.7km/h 62% 0.00in /  0mm
19:04 55.5 °F /  13.1 °C 42.7 °F /  5.9 °C 30.01in /  1016.1hPa WSW 6.0mph /  9.7km/h 8.0mph /  12.9km/h 62% 0.00in /  0mm
19:09 55.5 °F /  13.1 °C 42.3 °F /  5.7 °C 30.01in /  1016.1hPa SSW 8.0mph /  12.9km/h 12.0mph /  19.3km/h 61% 0.00in /  0mm
19:14 55.2 °F /  12.9 °C 42.4 °F /  5.8 °C 30.01in /  1016.1hPa SW 8.0mph /  12.9km/h 13.0mph /  20.9km/h 62% 0.00in /  0mm
19:19 55.0 °F /  12.8 °C 41.8 °F /  5.4 °C 30.01in /  1016.1hPa WSW 11.0mph /  17.7km/h 15.0mph /  24.1km/h 61% 0.00in /  0mm
19:24 54.7 °F /  12.6 °C 41.9 °F /  5.5 °C 30.01in /  1016.1hPa West 6.0mph /  9.7km/h 15.0mph /  24.1km/h 62% 0.00in /  0mm
19:29 54.5 °F /  12.5 °C 42.2 °F /  5.7 °C 30.01in /  1016.1hPa SW 4.0mph /  6.4km/h 14.0mph /  22.5km/h 63% 0.00in /  0mm
19:34 54.2 °F /  12.3 °C 41.9 °F /  5.5 °C 30.01in /  1016.1hPa SW 9.0mph /  14.5km/h 15.0mph /  24.1km/h 63% 0.00in /  0mm
19:39 54.0 °F /  12.2 °C 41.7 °F /  5.4 °C 30.01in /  1016.1hPa SW 7.0mph /  11.3km/h 15.0mph /  24.1km/h 63% 0.00in /  0mm
19:44 53.9 °F /  12.2 °C 41.6 °F /  5.3 °C 30.01in /  1016.1hPa SW 7.0mph /  11.3km/h 14.0mph /  22.5km/h 63% 0.00in /  0mm
19:49 53.7 °F /  12.1 °C 41.8 °F /  5.4 °C 30.01in /  1016.1hPa SW 6.0mph /  9.7km/h 13.0mph /  20.9km/h 64% 0.00in /  0mm
19:54 53.5 °F /  11.9 °C 41.6 °F /  5.3 °C 30.01in /  1016.1hPa WSW 6.0mph /  9.7km/h 13.0mph /  20.9km/h 64% 0.00in /  0mm
19:59 53.3 °F /  11.8 °C 41.8 °F /  5.4 °C 30.01in /  1016.1hPa SSW 10.0mph /  16.1km/h 13.0mph /  20.9km/h 65% 0.00in /  0mm
20:04 53.1 °F /  11.7 °C 41.6 °F /  5.3 °C 30.01in /  1016.1hPa SW 4.0mph /  6.4km/h 10.0mph /  16.1km/h 65% 0.00in /  0mm
20:09 52.9 °F /  11.6 °C 41.8 °F /  5.4 °C 30.01in /  1016.1hPa WSW 6.0mph /  9.7km/h 11.0mph /  17.7km/h 66% 0.00in /  0mm
20:14 52.8 °F /  11.6 °C 41.7 °F /  5.4 °C 30.01in /  1016.1hPa WSW 5.0mph /  8km/h 10.0mph /  16.1km/h 66% 0.00in /  0mm
20:19 52.5 °F /  11.4 °C 41.9 °F /  5.5 °C 30.01in /  1016.1hPa SW 6.0mph /  9.7km/h 12.0mph /  19.3km/h 67% 0.00in /  0mm
20:24 52.3 °F /  11.3 °C 41.7 °F /  5.4 °C 30.01in /  1016.1hPa WSW 3.0mph /  4.8km/h 11.0mph /  17.7km/h 67% 0.00in /  0mm
20:29 52.1 °F /  11.2 °C 41.9 °F /  5.5 °C 30.01in /  1016.1hPa WSW 3.0mph /  4.8km/h 9.0mph /  14.5km/h 68% 0.00in /  0mm
20:34 51.9 °F /  11.1 °C 41.7 °F /  5.4 °C 30.01in /  1016.1hPa WSW 2.0mph /  3.2km/h 9.0mph /  14.5km/h 68% 0.00in /  0mm
20:39 51.7 °F /  10.9 °C 41.9 °F /  5.5 °C 30.01in /  1016.1hPa WSW 4.0mph /  6.4km/h 12.0mph /  19.3km/h 69% 0.00in /  0mm
20:44 51.6 °F /  10.9 °C 41.8 °F /  5.4 °C 30.02in /  1016.5hPa WSW 5.0mph /  8km/h 12.0mph /  19.3km/h 69% 0.00in /  0mm
20:49 51.4 °F /  10.8 °C 41.9 °F /  5.5 °C 30.02in /  1016.5hPa West 1.0mph /  1.6km/h 8.0mph /  12.9km/h 70% 0.00in /  0mm
20:54 51.3 °F /  10.7 °C 41.8 °F /  5.4 °C 30.02in /  1016.5hPa WSW 5.0mph /  8km/h 8.0mph /  12.9km/h 70% 0.00in /  0mm
20:59 51.2 °F /  10.7 °C 42.1 °F /  5.6 °C 30.02in /  1016.5hPa WSW 3.0mph /  4.8km/h 8.0mph /  12.9km/h 71% 0.00in /  0mm
21:04 51.1 °F /  10.6 °C 42.0 °F /  5.6 °C 30.02in /  1016.5hPa WSW 4.0mph /  6.4km/h 8.0mph /  12.9km/h 71% 0.00in /  0mm
21:09 50.9 °F /  10.5 °C 42.2 °F /  5.7 °C 30.03in /  1016.8hPa WSW 4.0mph /  6.4km/h 9.0mph /  14.5km/h 72% 0.00in /  0mm
21:14 50.8 °F /  10.4 °C 42.1 °F /  5.6 °C 30.04in /  1017.2hPa WSW 3.0mph /  4.8km/h 9.0mph /  14.5km/h 72% 0.00in /  0mm
21:19 50.7 °F /  10.4 °C 42.0 °F /  5.6 °C 30.03in /  1016.8hPa West 3.0mph /  4.8km/h 8.0mph /  12.9km/h 72% 0.00in /  0mm
21:24 50.6 °F /  10.3 °C 42.3 °F /  5.7 °C 30.04in /  1017.2hPa WSW 2.0mph /  3.2km/h 7.0mph /  11.3km/h 73% 0.00in /  0mm
21:29 50.5 °F /  10.3 °C 42.2 °F /  5.7 °C 30.04in /  1017.2hPa SW 3.0mph /  4.8km/h 7.0mph /  11.3km/h 73% 0.00in /  0mm
21:34 50.4 °F /  10.2 °C 42.1 °F /  5.6 °C 30.03in /  1016.8hPa WSW 2.0mph /  3.2km/h 6.0mph /  9.7km/h 73% 0.00in /  0mm
21:39 50.3 °F /  10.2 °C 42.3 °F /  5.7 °C 30.04in /  1017.2hPa SW 3.0mph /  4.8km/h 7.0mph /  11.3km/h 74% 0.00in /  0mm
21:44 50.2 °F /  10.1 °C 42.2 °F /  5.7 °C 30.03in /  1016.8hPa WSW 3.0mph /  4.8km/h 8.0mph /  12.9km/h 74% 0.00in /  0mm
21:49 50.1 °F /  10.1 °C 42.5 °F /  5.8 °C 30.04in /  1017.2hPa SW 1.0mph /  1.6km/h 7.0mph /  11.3km/h 75% 0.00in /  0mm
21:54 50.0 °F /  10 °C 42.4 °F /  5.8 °C 30.03in /  1016.8hPa SSW 3.0mph /  4.8km/h 4.0mph /  6.4km/h 75% 0.00in /  0mm
21:59 49.8 °F /  9.9 °C 42.2 °F /  5.7 °C 30.03in /  1016.8hPa SW 2.0mph /  3.2km/h 4.0mph /  6.4km/h 75% 0.00in /  0mm
22:04 49.7 °F /  9.8 °C 42.4 °F /  5.8 °C 30.03in /  1016.8hPa SW 2.0mph /  3.2km/h 6.0mph /  9.7km/h 76% 0.00in /  0mm
22:09 49.6 °F /  9.8 °C 42.3 °F /  5.7 °C 30.03in /  1016.8hPa SW 2.0mph /  3.2km/h 6.0mph /  9.7km/h 76% 0.00in /  0mm
22:14 49.4 °F /  9.7 °C 42.5 °F /  5.8 °C 30.02in /  1016.5hPa SW 2.0mph /  3.2km/h 6.0mph /  9.7km/h 77% 0.00in /  0mm
22:19 49.3 °F /  9.6 °C 42.4 °F /  5.8 °C 30.02in /  1016.5hPa SW 2.0mph /  3.2km/h 5.0mph /  8km/h 77% 0.00in /  0mm
22:24 49.1 °F /  9.5 °C 42.2 °F /  5.7 °C 30.02in /  1016.5hPa SW 1.0mph /  1.6km/h 4.0mph /  6.4km/h 77% 0.00in /  0mm
22:29 49.0 °F /  9.4 °C 42.4 °F /  5.8 °C 30.02in /  1016.5hPa SSW 1.0mph /  1.6km/h 6.0mph /  9.7km/h 78% 0.00in /  0mm
22:34 48.9 °F /  9.4 °C 42.3 °F /  5.7 °C 30.02in /  1016.5hPa SSW 5.0mph /  8km/h 5.0mph /  8km/h 78% 0.00in /  0mm
22:39 48.8 °F /  9.3 °C 42.2 °F /  5.7 °C 30.03in /  1016.8hPa SW 1.0mph /  1.6km/h 5.0mph /  8km/h 78% 0.00in /  0mm
22:44 48.7 °F /  9.3 °C 42.1 °F /  5.6 °C 30.02in /  1016.5hPa SW 2.0mph /  3.2km/h 5.0mph /  8km/h 78% 0.00in /  0mm
22:49 48.7 °F /  9.3 °C 42.1 °F /  5.6 °C 30.03in /  1016.8hPa Calm   5.0mph /  8km/h 78% 0.00in /  0mm
22:54 48.5 °F /  9.2 °C 42.0 °F /  5.6 °C 30.02in /  1016.5hPa SW 2.0mph /  3.2km/h 5.0mph /  8km/h 78% 0.00in /  0mm
22:59 48.5 °F /  9.2 °C 42.3 °F /  5.7 °C 30.02in /  1016.5hPa SW 3.0mph /  4.8km/h 4.0mph /  6.4km/h 79% 0.00in /  0mm
23:04 48.4 °F /  9.1 °C 42.2 °F /  5.7 °C 30.03in /  1016.8hPa SW 1.0mph /  1.6km/h 4.0mph /  6.4km/h 79% 0.00in /  0mm
23:09 48.4 °F /  9.1 °C 42.2 °F /  5.7 °C 30.03in /  1016.8hPa SW 2.0mph /  3.2km/h 4.0mph /  6.4km/h 79% 0.00in /  0mm
23:14 48.4 °F /  9.1 °C 42.2 °F /  5.7 °C 30.03in /  1016.8hPa SW 2.0mph /  3.2km/h 5.0mph /  8km/h 79% 0.00in /  0mm
23:19 48.4 °F /  9.1 °C 42.2 °F /  5.7 °C 30.03in /  1016.8hPa SW 2.0mph /  3.2km/h 5.0mph /  8km/h 79% 0.00in /  0mm
23:24 48.3 °F /  9.1 °C 42.1 °F /  5.6 °C 30.03in /  1016.8hPa SW 1.0mph /  1.6km/h 5.0mph /  8km/h 79% 0.00in /  0mm
23:29 48.3 °F /  9.1 °C 42.1 °F /  5.6 °C 30.02in /  1016.5hPa SW 2.0mph /  3.2km/h 5.0mph /  8km/h 79% 0.00in /  0mm
23:34 48.3 °F /  9.1 °C 42.1 °F /  5.6 °C 30.02in /  1016.5hPa SW 2.0mph /  3.2km/h 5.0mph /  8km/h 79% 0.00in /  0mm
23:39 48.3 °F /  9.1 °C 42.1 °F /  5.6 °C 30.02in /  1016.5hPa SW 2.0mph /  3.2km/h 6.0mph /  9.7km/h 79% 0.00in /  0mm
23:44 48.4 °F /  9.1 °C 42.2 °F /  5.7 °C 30.02in /  1016.5hPa SW 1.0mph /  1.6km/h 4.0mph /  6.4km/h 79% 0.00in /  0mm
23:49 48.5 °F /  9.2 °C 42.3 °F /  5.7 °C 30.02in /  1016.5hPa WSW 4.0mph /  6.4km/h 5.0mph /  8km/h 79% 0.00in /  0mm
23:54 48.6 °F /  9.2 °C 42.4 °F /  5.8 °C 30.02in /  1016.5hPa WSW 6.0mph /  9.7km/h 7.0mph /  11.3km/h 79% 0.00in /  0mm
23:59 48.7 °F /  9.3 °C 42.5 °F /  5.8 °C 30.02in /  1016.5hPa SW 1.0mph /  1.6km/h 6.0mph /  9.7km/h 79% 0.00in /  0mm
Buffalo, New York, USA
Compliments of Weather Underground - 2.5 mb